sensor_id;sensor_type;location;lat;lon;timestamp;P1;durP1;ratioP1;P2;durP2;ratioP2
14770;SDS011;7477;45.222;5.688;2022-07-29T00:01:38;2.22;;;2.03;;
14770;SDS011;7477;45.222;5.688;2022-07-29T00:04:57;2.35;;;2.15;;
14770;SDS011;7477;45.222;5.688;2022-07-29T00:08:17;2.33;;;2.17;;
14770;SDS011;7477;45.222;5.688;2022-07-29T00:11:36;2.75;;;1.90;;
14770;SDS011;7477;45.222;5.688;2022-07-29T00:14:56;4.75;;;2.10;;
14770;SDS011;7477;45.222;5.688;2022-07-29T00:18:15;4.60;;;2.05;;
14770;SDS011;7477;45.222;5.688;2022-07-29T00:21:35;3.65;;;2.03;;
14770;SDS011;7477;45.222;5.688;2022-07-29T00:24:54;2.30;;;2.10;;
14770;SDS011;7477;45.222;5.688;2022-07-29T00:28:13;2.78;;;2.40;;
14770;SDS011;7477;45.222;5.688;2022-07-29T00:31:32;3.75;;;2.30;;
14770;SDS011;7477;45.222;5.688;2022-07-29T00:34:51;4.82;;;2.60;;
14770;SDS011;7477;45.222;5.688;2022-07-29T00:38:29;2.42;;;2.22;;
14770;SDS011;7477;45.222;5.688;2022-07-29T00:41:48;3.35;;;1.88;;
14770;SDS011;7477;45.222;5.688;2022-07-29T00:45:08;3.38;;;2.00;;
14770;SDS011;7477;45.222;5.688;2022-07-29T00:48:28;3.05;;;2.17;;
14770;SDS011;7477;45.222;5.688;2022-07-29T00:51:47;2.55;;;2.05;;
14770;SDS011;7477;45.222;5.688;2022-07-29T00:55:08;3.13;;;2.00;;
14770;SDS011;7477;45.222;5.688;2022-07-29T00:58:30;4.20;;;2.20;;
14770;SDS011;7477;45.222;5.688;2022-07-29T01:01:50;3.05;;;2.17;;
14770;SDS011;7477;45.222;5.688;2022-07-29T01:05:09;5.43;;;2.28;;
14770;SDS011;7477;45.222;5.688;2022-07-29T01:08:31;3.55;;;2.00;;
14770;SDS011;7477;45.222;5.688;2022-07-29T01:11:51;3.03;;;2.03;;
14770;SDS011;7477;45.222;5.688;2022-07-29T01:15:11;3.08;;;2.00;;
14770;SDS011;7477;45.222;5.688;2022-07-29T01:18:34;4.90;;;2.38;;
14770;SDS011;7477;45.222;5.688;2022-07-29T01:21:59;3.20;;;1.77;;
14770;SDS011;7477;45.222;5.688;2022-07-29T01:32:19;3.58;;;2.20;;
14770;SDS011;7477;45.222;5.688;2022-07-29T01:35:43;3.25;;;2.40;;
14770;SDS011;7477;45.222;5.688;2022-07-29T01:42:33;8.18;;;2.20;;
14770;SDS011;7477;45.222;5.688;2022-07-29T01:46:02;2.45;;;2.25;;
14770;SDS011;7477;45.222;5.688;2022-07-29T01:49:27;3.60;;;2.10;;
14770;SDS011;7477;45.222;5.688;2022-07-29T01:52:52;2.13;;;1.90;;
14770;SDS011;7477;45.222;5.688;2022-07-29T01:56:15;2.72;;;2.25;;
14770;SDS011;7477;45.222;5.688;2022-07-29T01:59:37;2.35;;;1.90;;
14770;SDS011;7477;45.222;5.688;2022-07-29T02:02:58;3.58;;;2.20;;
14770;SDS011;7477;45.222;5.688;2022-07-29T02:06:22;4.20;;;2.30;;
14770;SDS011;7477;45.222;5.688;2022-07-29T02:09:42;2.97;;;2.33;;
14770;SDS011;7477;45.222;5.688;2022-07-29T02:13:04;2.40;;;2.20;;
14770;SDS011;7477;45.222;5.688;2022-07-29T02:16:27;3.33;;;2.10;;
14770;SDS011;7477;45.222;5.688;2022-07-29T02:19:49;2.92;;;2.22;;
14770;SDS011;7477;45.222;5.688;2022-07-29T02:23:11;3.67;;;1.60;;
14770;SDS011;7477;45.222;5.688;2022-07-29T02:26:33;1.90;;;1.70;;
14770;SDS011;7477;45.222;5.688;2022-07-29T02:29:52;2.22;;;2.03;;
14770;SDS011;7477;45.222;5.688;2022-07-29T02:33:14;2.83;;;2.03;;
14770;SDS011;7477;45.222;5.688;2022-07-29T02:36:36;2.70;;;2.05;;
14770;SDS011;7477;45.222;5.688;2022-07-29T02:39:56;4.20;;;2.53;;
14770;SDS011;7477;45.222;5.688;2022-07-29T02:43:17;3.72;;;2.00;;
14770;SDS011;7477;45.222;5.688;2022-07-29T02:46:41;4.22;;;2.20;;
14770;SDS011;7477;45.222;5.688;2022-07-29T02:50:26;2.42;;;1.80;;
14770;SDS011;7477;45.222;5.688;2022-07-29T02:53:51;2.65;;;2.10;;
14770;SDS011;7477;45.222;5.688;2022-07-29T02:57:32;5.65;;;2.42;;
14770;SDS011;7477;45.222;5.688;2022-07-29T03:01:07;2.42;;;2.10;;
14770;SDS011;7477;45.222;5.688;2022-07-29T03:04:33;4.00;;;2.10;;
14770;SDS011;7477;45.222;5.688;2022-07-29T03:07:55;2.85;;;1.90;;
14770;SDS011;7477;45.222;5.688;2022-07-29T03:11:19;2.20;;;2.00;;
14770;SDS011;7477;45.222;5.688;2022-07-29T03:14:39;4.40;;;2.15;;
14770;SDS011;7477;45.222;5.688;2022-07-29T03:17:58;2.10;;;1.90;;
14770;SDS011;7477;45.222;5.688;2022-07-29T03:21:18;3.25;;;2.13;;
14770;SDS011;7477;45.222;5.688;2022-07-29T03:24:37;4.03;;;2.20;;
14770;SDS011;7477;45.222;5.688;2022-07-29T03:27:57;2.55;;;1.80;;
14770;SDS011;7477;45.222;5.688;2022-07-29T03:31:17;2.15;;;1.95;;
14770;SDS011;7477;45.222;5.688;2022-07-29T03:34:37;5.45;;;2.67;;
14770;SDS011;7477;45.222;5.688;2022-07-29T03:37:56;6.20;;;2.30;;
14770;SDS011;7477;45.222;5.688;2022-07-29T03:41:16;3.35;;;2.38;;
14770;SDS011;7477;45.222;5.688;2022-07-29T03:44:38;2.10;;;1.92;;
14770;SDS011;7477;45.222;5.688;2022-07-29T03:48:01;2.92;;;2.30;;
14770;SDS011;7477;45.222;5.688;2022-07-29T03:51:25;4.05;;;2.40;;
14770;SDS011;7477;45.222;5.688;2022-07-29T03:54:45;4.10;;;2.10;;
14770;SDS011;7477;45.222;5.688;2022-07-29T03:58:05;4.20;;;2.30;;
14770;SDS011;7477;45.222;5.688;2022-07-29T04:01:26;2.10;;;1.90;;
14770;SDS011;7477;45.222;5.688;2022-07-29T04:04:47;2.55;;;2.33;;
14770;SDS011;7477;45.222;5.688;2022-07-29T04:08:07;2.65;;;2.45;;
14770;SDS011;7477;45.222;5.688;2022-07-29T04:11:27;2.30;;;2.10;;
14770;SDS011;7477;45.222;5.688;2022-07-29T04:14:46;3.05;;;2.22;;
14770;SDS011;7477;45.222;5.688;2022-07-29T04:18:05;4.57;;;2.35;;
14770;SDS011;7477;45.222;5.688;2022-07-29T04:21:25;2.20;;;1.95;;
14770;SDS011;7477;45.222;5.688;2022-07-29T04:24:44;3.33;;;2.30;;
14770;SDS011;7477;45.222;5.688;2022-07-29T04:28:03;5.07;;;2.22;;
14770;SDS011;7477;45.222;5.688;2022-07-29T04:31:23;3.88;;;2.15;;
14770;SDS011;7477;45.222;5.688;2022-07-29T04:34:43;5.15;;;2.25;;
14770;SDS011;7477;45.222;5.688;2022-07-29T04:38:05;5.68;;;2.40;;
14770;SDS011;7477;45.222;5.688;2022-07-29T04:41:24;2.47;;;2.28;;
14770;SDS011;7477;45.222;5.688;2022-07-29T04:44:44;2.35;;;2.08;;
14770;SDS011;7477;45.222;5.688;2022-07-29T04:48:03;9.55;;;2.45;;
14770;SDS011;7477;45.222;5.688;2022-07-29T04:51:22;2.85;;;2.03;;
14770;SDS011;7477;45.222;5.688;2022-07-29T04:54:41;4.75;;;2.53;;
14770;SDS011;7477;45.222;5.688;2022-07-29T04:58:00;4.30;;;2.40;;
14770;SDS011;7477;45.222;5.688;2022-07-29T05:01:19;4.53;;;1.90;;
14770;SDS011;7477;45.222;5.688;2022-07-29T05:04:39;2.45;;;1.92;;
14770;SDS011;7477;45.222;5.688;2022-07-29T05:07:59;6.40;;;2.58;;
14770;SDS011;7477;45.222;5.688;2022-07-29T05:11:18;2.63;;;2.22;;
14770;SDS011;7477;45.222;5.688;2022-07-29T05:14:37;2.75;;;2.15;;
14770;SDS011;7477;45.222;5.688;2022-07-29T05:17:56;2.17;;;1.80;;
14770;SDS011;7477;45.222;5.688;2022-07-29T05:21:16;2.33;;;2.00;;
14770;SDS011;7477;45.222;5.688;2022-07-29T05:24:35;2.28;;;2.10;;
14770;SDS011;7477;45.222;5.688;2022-07-29T05:27:54;6.30;;;2.45;;
14770;SDS011;7477;45.222;5.688;2022-07-29T05:31:14;5.10;;;2.47;;
14770;SDS011;7477;45.222;5.688;2022-07-29T05:34:33;2.63;;;1.95;;
14770;SDS011;7477;45.222;5.688;2022-07-29T05:37:53;5.22;;;2.22;;
14770;SDS011;7477;45.222;5.688;2022-07-29T05:41:12;5.50;;;2.15;;
14770;SDS011;7477;45.222;5.688;2022-07-29T05:44:35;4.43;;;2.20;;
14770;SDS011;7477;45.222;5.688;2022-07-29T05:47:55;4.85;;;2.25;;
14770;SDS011;7477;45.222;5.688;2022-07-29T05:51:15;6.15;;;2.58;;
14770;SDS011;7477;45.222;5.688;2022-07-29T05:54:35;7.20;;;2.83;;
14770;SDS011;7477;45.222;5.688;2022-07-29T05:57:54;5.55;;;2.55;;
14770;SDS011;7477;45.222;5.688;2022-07-29T06:01:13;3.50;;;2.42;;
14770;SDS011;7477;45.222;5.688;2022-07-29T06:04:33;7.10;;;2.60;;
14770;SDS011;7477;45.222;5.688;2022-07-29T06:07:53;6.28;;;3.15;;
14770;SDS011;7477;45.222;5.688;2022-07-29T06:11:12;7.05;;;2.90;;
14770;SDS011;7477;45.222;5.688;2022-07-29T06:14:31;3.50;;;2.70;;
14770;SDS011;7477;45.222;5.688;2022-07-29T06:17:51;6.32;;;2.75;;
14770;SDS011;7477;45.222;5.688;2022-07-29T06:21:11;5.88;;;2.35;;
14770;SDS011;7477;45.222;5.688;2022-07-29T06:24:30;6.82;;;2.20;;
14770;SDS011;7477;45.222;5.688;2022-07-29T06:27:50;3.20;;;2.10;;
14770;SDS011;7477;45.222;5.688;2022-07-29T06:31:10;3.22;;;2.40;;
14770;SDS011;7477;45.222;5.688;2022-07-29T06:34:29;3.50;;;2.25;;
14770;SDS011;7477;45.222;5.688;2022-07-29T06:37:48;5.13;;;2.28;;
14770;SDS011;7477;45.222;5.688;2022-07-29T06:41:08;3.60;;;2.40;;
14770;SDS011;7477;45.222;5.688;2022-07-29T06:44:30;4.82;;;2.40;;
14770;SDS011;7477;45.222;5.688;2022-07-29T06:47:52;3.03;;;2.40;;
14770;SDS011;7477;45.222;5.688;2022-07-29T06:51:11;2.50;;;2.30;;
14770;SDS011;7477;45.222;5.688;2022-07-29T06:54:31;4.75;;;2.58;;
14770;SDS011;7477;45.222;5.688;2022-07-29T06:57:50;8.05;;;2.42;;
14770;SDS011;7477;45.222;5.688;2022-07-29T07:01:10;3.10;;;2.38;;
14770;SDS011;7477;45.222;5.688;2022-07-29T07:04:29;4.22;;;2.28;;
14770;SDS011;7477;45.222;5.688;2022-07-29T07:07:49;11.38;;;3.97;;
14770;SDS011;7477;45.222;5.688;2022-07-29T07:11:08;8.02;;;3.00;;
14770;SDS011;7477;45.222;5.688;2022-07-29T07:14:28;4.15;;;2.30;;
14770;SDS011;7477;45.222;5.688;2022-07-29T07:17:47;9.07;;;3.10;;
14770;SDS011;7477;45.222;5.688;2022-07-29T07:21:07;12.52;;;2.90;;
14770;SDS011;7477;45.222;5.688;2022-07-29T07:24:26;8.55;;;2.70;;
14770;SDS011;7477;45.222;5.688;2022-07-29T07:27:46;7.88;;;2.88;;
14770;SDS011;7477;45.222;5.688;2022-07-29T07:31:05;10.23;;;3.15;;
14770;SDS011;7477;45.222;5.688;2022-07-29T07:34:25;8.52;;;2.83;;
14770;SDS011;7477;45.222;5.688;2022-07-29T07:37:44;8.20;;;2.83;;
14770;SDS011;7477;45.222;5.688;2022-07-29T07:41:03;11.55;;;3.15;;
14770;SDS011;7477;45.222;5.688;2022-07-29T07:44:23;7.25;;;2.70;;
14770;SDS011;7477;45.222;5.688;2022-07-29T07:47:42;8.43;;;2.70;;
14770;SDS011;7477;45.222;5.688;2022-07-29T07:51:01;10.32;;;2.65;;
14770;SDS011;7477;45.222;5.688;2022-07-29T07:54:21;11.45;;;3.22;;
14770;SDS011;7477;45.222;5.688;2022-07-29T07:57:40;7.40;;;2.45;;
14770;SDS011;7477;45.222;5.688;2022-07-29T08:00:59;6.45;;;2.50;;
14770;SDS011;7477;45.222;5.688;2022-07-29T08:04:18;10.60;;;2.63;;
14770;SDS011;7477;45.222;5.688;2022-07-29T08:07:38;8.25;;;2.67;;
14770;SDS011;7477;45.222;5.688;2022-07-29T08:10:57;10.32;;;2.42;;
14770;SDS011;7477;45.222;5.688;2022-07-29T08:14:17;5.70;;;2.30;;
14770;SDS011;7477;45.222;5.688;2022-07-29T08:17:37;13.93;;;3.40;;
14770;SDS011;7477;45.222;5.688;2022-07-29T08:20:57;8.00;;;2.80;;
14770;SDS011;7477;45.222;5.688;2022-07-29T08:24:17;6.60;;;3.20;;
14770;SDS011;7477;45.222;5.688;2022-07-29T08:27:55;5.45;;;3.17;;
14770;SDS011;7477;45.222;5.688;2022-07-29T08:31:15;13.95;;;3.50;;
14770;SDS011;7477;45.222;5.688;2022-07-29T08:34:35;5.95;;;3.58;;
14770;SDS011;7477;45.222;5.688;2022-07-29T08:37:54;8.77;;;3.55;;
14770;SDS011;7477;45.222;5.688;2022-07-29T08:41:15;4.55;;;3.30;;
14770;SDS011;7477;45.222;5.688;2022-07-29T08:44:37;6.60;;;3.50;;
14770;SDS011;7477;45.222;5.688;2022-07-29T08:47:57;11.07;;;3.83;;
14770;SDS011;7477;45.222;5.688;2022-07-29T08:51:17;4.93;;;3.55;;
14770;SDS011;7477;45.222;5.688;2022-07-29T08:54:40;17.80;;;4.10;;
14770;SDS011;7477;45.222;5.688;2022-07-29T08:58:02;9.38;;;3.40;;
14770;SDS011;7477;45.222;5.688;2022-07-29T09:01:24;8.07;;;3.47;;
14770;SDS011;7477;45.222;5.688;2022-07-29T09:04:45;9.50;;;3.30;;
14770;SDS011;7477;45.222;5.688;2022-07-29T09:08:05;6.45;;;3.53;;
14770;SDS011;7477;45.222;5.688;2022-07-29T09:11:25;4.07;;;3.28;;
14770;SDS011;7477;45.222;5.688;2022-07-29T09:14:44;5.03;;;3.63;;
14770;SDS011;7477;45.222;5.688;2022-07-29T09:18:03;7.35;;;3.60;;
14770;SDS011;7477;45.222;5.688;2022-07-29T09:21:23;9.60;;;4.00;;
14770;SDS011;7477;45.222;5.688;2022-07-29T09:25:01;7.53;;;3.92;;
14770;SDS011;7477;45.222;5.688;2022-07-29T09:28:20;7.43;;;3.78;;
14770;SDS011;7477;45.222;5.688;2022-07-29T09:31:41;6.50;;;4.68;;
14770;SDS011;7477;45.222;5.688;2022-07-29T09:38:38;6.55;;;4.03;;
14770;SDS011;7477;45.222;5.688;2022-07-29T09:41:58;10.75;;;4.43;;
14770;SDS011;7477;45.222;5.688;2022-07-29T09:45:29;10.88;;;4.40;;
14770;SDS011;7477;45.222;5.688;2022-07-29T09:49:05;9.20;;;4.20;;
14770;SDS011;7477;45.222;5.688;2022-07-29T09:52:31;6.88;;;4.32;;
14770;SDS011;7477;45.222;5.688;2022-07-29T09:55:51;6.38;;;4.18;;
14770;SDS011;7477;45.222;5.688;2022-07-29T09:59:10;13.90;;;4.28;;
14770;SDS011;7477;45.222;5.688;2022-07-29T10:02:31;5.32;;;4.20;;
14770;SDS011;7477;45.222;5.688;2022-07-29T10:06:05;8.05;;;5.07;;
14770;SDS011;7477;45.222;5.688;2022-07-29T10:09:26;5.88;;;4.22;;
14770;SDS011;7477;45.222;5.688;2022-07-29T10:12:55;7.43;;;4.30;;
14770;SDS011;7477;45.222;5.688;2022-07-29T10:16:16;7.38;;;4.45;;
14770;SDS011;7477;45.222;5.688;2022-07-29T10:19:36;6.15;;;4.03;;
14770;SDS011;7477;45.222;5.688;2022-07-29T10:22:57;8.25;;;4.25;;
14770;SDS011;7477;45.222;5.688;2022-07-29T10:26:16;8.20;;;3.92;;
14770;SDS011;7477;45.222;5.688;2022-07-29T10:29:36;5.18;;;3.85;;
14770;SDS011;7477;45.222;5.688;2022-07-29T10:36:47;14.20;;;3.65;;
14770;SDS011;7477;45.222;5.688;2022-07-29T10:40:25;6.10;;;3.63;;
14770;SDS011;7477;45.222;5.688;2022-07-29T10:44:27;4.00;;;3.60;;
14770;SDS011;7477;45.222;5.688;2022-07-29T10:47:47;4.65;;;3.67;;
14770;SDS011;7477;45.222;5.688;2022-07-29T10:51:07;4.22;;;3.25;;
14770;SDS011;7477;45.222;5.688;2022-07-29T10:58:11;8.40;;;4.10;;
14770;SDS011;7477;45.222;5.688;2022-07-29T11:01:31;4.72;;;3.88;;
14770;SDS011;7477;45.222;5.688;2022-07-29T11:11:32;8.82;;;4.82;;
14770;SDS011;7477;45.222;5.688;2022-07-29T11:18:10;7.38;;;5.47;;
14770;SDS011;7477;45.222;5.688;2022-07-29T11:21:38;6.28;;;5.03;;
14770;SDS011;7477;45.222;5.688;2022-07-29T11:25:14;13.18;;;5.38;;
14770;SDS011;7477;45.222;5.688;2022-07-29T11:28:35;9.70;;;4.75;;
14770;SDS011;7477;45.222;5.688;2022-07-29T11:32:08;6.93;;;4.78;;
14770;SDS011;7477;45.222;5.688;2022-07-29T11:35:36;5.80;;;4.78;;
14770;SDS011;7477;45.222;5.688;2022-07-29T11:39:24;8.52;;;5.20;;
14770;SDS011;7477;45.222;5.688;2022-07-29T11:42:45;7.95;;;5.40;;
14770;SDS011;7477;45.222;5.688;2022-07-29T11:46:04;6.55;;;5.13;;
14770;SDS011;7477;45.222;5.688;2022-07-29T11:49:25;5.20;;;4.70;;
14770;SDS011;7477;45.222;5.688;2022-07-29T11:52:46;9.32;;;4.88;;
14770;SDS011;7477;45.222;5.688;2022-07-29T11:56:08;7.32;;;4.45;;
14770;SDS011;7477;45.222;5.688;2022-07-29T11:59:28;4.30;;;3.90;;
14770;SDS011;7477;45.222;5.688;2022-07-29T12:02:48;5.43;;;3.83;;
14770;SDS011;7477;45.222;5.688;2022-07-29T12:06:11;4.55;;;4.13;;
14770;SDS011;7477;45.222;5.688;2022-07-29T12:09:34;5.05;;;4.55;;
14770;SDS011;7477;45.222;5.688;2022-07-29T12:12:55;4.82;;;4.10;;
14770;SDS011;7477;45.222;5.688;2022-07-29T12:16:14;5.70;;;4.22;;
14770;SDS011;7477;45.222;5.688;2022-07-29T12:19:41;5.25;;;4.65;;
14770;SDS011;7477;45.222;5.688;2022-07-29T12:23:04;4.38;;;3.35;;
14770;SDS011;7477;45.222;5.688;2022-07-29T12:26:25;3.47;;;3.17;;
14770;SDS011;7477;45.222;5.688;2022-07-29T12:29:45;5.55;;;3.47;;
14770;SDS011;7477;45.222;5.688;2022-07-29T12:33:28;3.38;;;3.08;;
14770;SDS011;7477;45.222;5.688;2022-07-29T12:36:48;5.80;;;2.95;;
14770;SDS011;7477;45.222;5.688;2022-07-29T12:40:08;5.22;;;3.17;;
14770;SDS011;7477;45.222;5.688;2022-07-29T12:43:29;3.22;;;2.92;;
14770;SDS011;7477;45.222;5.688;2022-07-29T12:47:02;6.05;;;3.42;;
14770;SDS011;7477;45.222;5.688;2022-07-29T12:50:22;3.30;;;3.00;;
14770;SDS011;7477;45.222;5.688;2022-07-29T12:54:00;4.43;;;3.58;;
14770;SDS011;7477;45.222;5.688;2022-07-29T12:57:23;6.60;;;3.70;;
14770;SDS011;7477;45.222;5.688;2022-07-29T13:00:43;5.78;;;3.72;;
14770;SDS011;7477;45.222;5.688;2022-07-29T13:04:02;4.07;;;3.38;;
14770;SDS011;7477;45.222;5.688;2022-07-29T13:07:27;4.20;;;3.45;;
14770;SDS011;7477;45.222;5.688;2022-07-29T13:10:47;3.70;;;3.40;;
14770;SDS011;7477;45.222;5.688;2022-07-29T13:14:07;3.58;;;3.22;;
14770;SDS011;7477;45.222;5.688;2022-07-29T13:17:28;5.10;;;3.60;;
14770;SDS011;7477;45.222;5.688;2022-07-29T13:21:10;5.22;;;3.75;;
14770;SDS011;7477;45.222;5.688;2022-07-29T13:24:31;3.67;;;3.05;;
14770;SDS011;7477;45.222;5.688;2022-07-29T13:27:50;3.55;;;3.00;;
14770;SDS011;7477;45.222;5.688;2022-07-29T13:31:10;3.25;;;2.90;;
14770;SDS011;7477;45.222;5.688;2022-07-29T13:34:29;4.38;;;3.08;;
14770;SDS011;7477;45.222;5.688;2022-07-29T13:37:49;5.07;;;3.00;;
14770;SDS011;7477;45.222;5.688;2022-07-29T13:41:09;4.22;;;3.13;;
14770;SDS011;7477;45.222;5.688;2022-07-29T13:44:28;3.22;;;2.95;;
14770;SDS011;7477;45.222;5.688;2022-07-29T13:47:47;4.93;;;3.42;;
14770;SDS011;7477;45.222;5.688;2022-07-29T13:51:06;4.72;;;3.20;;
14770;SDS011;7477;45.222;5.688;2022-07-29T13:54:26;5.45;;;3.03;;
14770;SDS011;7477;45.222;5.688;2022-07-29T13:57:45;4.38;;;3.30;;
14770;SDS011;7477;45.222;5.688;2022-07-29T14:01:05;3.38;;;3.08;;
14770;SDS011;7477;45.222;5.688;2022-07-29T14:04:25;3.17;;;2.72;;
14770;SDS011;7477;45.222;5.688;2022-07-29T14:07:45;4.53;;;2.97;;
14770;SDS011;7477;45.222;5.688;2022-07-29T14:11:04;5.30;;;3.00;;
14770;SDS011;7477;45.222;5.688;2022-07-29T14:14:23;3.60;;;3.25;;
14770;SDS011;7477;45.222;5.688;2022-07-29T14:17:43;3.88;;;3.58;;
14770;SDS011;7477;45.222;5.688;2022-07-29T14:21:02;3.70;;;3.40;;
14770;SDS011;7477;45.222;5.688;2022-07-29T14:24:22;5.15;;;3.60;;
14770;SDS011;7477;45.222;5.688;2022-07-29T14:27:41;5.20;;;3.72;;
14770;SDS011;7477;45.222;5.688;2022-07-29T14:31:04;5.32;;;3.42;;
14770;SDS011;7477;45.222;5.688;2022-07-29T14:34:23;6.97;;;4.22;;
14770;SDS011;7477;45.222;5.688;2022-07-29T14:37:42;4.93;;;3.17;;
14770;SDS011;7477;45.222;5.688;2022-07-29T14:41:02;4.60;;;3.97;;
14770;SDS011;7477;45.222;5.688;2022-07-29T14:44:22;4.03;;;3.63;;
14770;SDS011;7477;45.222;5.688;2022-07-29T14:47:42;5.57;;;3.92;;
14770;SDS011;7477;45.222;5.688;2022-07-29T14:51:01;5.57;;;4.28;;
14770;SDS011;7477;45.222;5.688;2022-07-29T14:54:21;6.60;;;3.97;;
14770;SDS011;7477;45.222;5.688;2022-07-29T14:57:40;3.50;;;3.20;;
14770;SDS011;7477;45.222;5.688;2022-07-29T15:00:59;3.33;;;3.03;;
14770;SDS011;7477;45.222;5.688;2022-07-29T15:04:19;4.28;;;3.60;;
14770;SDS011;7477;45.222;5.688;2022-07-29T15:07:39;3.72;;;3.13;;
14770;SDS011;7477;45.222;5.688;2022-07-29T15:10:58;4.70;;;3.38;;
14770;SDS011;7477;45.222;5.688;2022-07-29T15:14:19;4.78;;;3.20;;
14770;SDS011;7477;45.222;5.688;2022-07-29T15:17:38;5.13;;;3.30;;
14770;SDS011;7477;45.222;5.688;2022-07-29T15:20:57;3.80;;;3.50;;
14770;SDS011;7477;45.222;5.688;2022-07-29T15:24:18;3.85;;;2.97;;
14770;SDS011;7477;45.222;5.688;2022-07-29T15:27:38;5.03;;;3.47;;
14770;SDS011;7477;45.222;5.688;2022-07-29T15:30:57;3.90;;;3.00;;
14770;SDS011;7477;45.222;5.688;2022-07-29T15:34:17;3.38;;;2.92;;
14770;SDS011;7477;45.222;5.688;2022-07-29T15:37:37;3.88;;;3.28;;
14770;SDS011;7477;45.222;5.688;2022-07-29T15:40:57;3.33;;;2.88;;
14770;SDS011;7477;45.222;5.688;2022-07-29T15:44:16;3.20;;;2.80;;
14770;SDS011;7477;45.222;5.688;2022-07-29T15:47:35;3.42;;;3.13;;
14770;SDS011;7477;45.222;5.688;2022-07-29T15:50:55;3.92;;;3.00;;
14770;SDS011;7477;45.222;5.688;2022-07-29T15:54:14;2.92;;;2.60;;
14770;SDS011;7477;45.222;5.688;2022-07-29T15:57:35;3.03;;;2.63;;
14770;SDS011;7477;45.222;5.688;2022-07-29T16:00:54;2.72;;;2.53;;
14770;SDS011;7477;45.222;5.688;2022-07-29T16:04:14;5.22;;;2.63;;
14770;SDS011;7477;45.222;5.688;2022-07-29T16:07:33;4.35;;;3.35;;
14770;SDS011;7477;45.222;5.688;2022-07-29T16:10:53;2.80;;;2.60;;
14770;SDS011;7477;45.222;5.688;2022-07-29T16:14:12;2.63;;;2.42;;
14770;SDS011;7477;45.222;5.688;2022-07-29T16:17:32;2.45;;;2.25;;
14770;SDS011;7477;45.222;5.688;2022-07-29T16:20:51;7.38;;;6.13;;
14770;SDS011;7477;45.222;5.688;2022-07-29T16:24:11;4.47;;;3.33;;
14770;SDS011;7477;45.222;5.688;2022-07-29T16:27:30;3.22;;;2.70;;
14770;SDS011;7477;45.222;5.688;2022-07-29T16:30:49;3.72;;;3.00;;
14770;SDS011;7477;45.222;5.688;2022-07-29T16:34:09;2.80;;;2.60;;
14770;SDS011;7477;45.222;5.688;2022-07-29T16:37:28;4.32;;;2.60;;
14770;SDS011;7477;45.222;5.688;2022-07-29T16:40:55;3.13;;;2.60;;
14770;SDS011;7477;45.222;5.688;2022-07-29T16:44:14;2.47;;;2.28;;
14770;SDS011;7477;45.222;5.688;2022-07-29T16:47:33;6.60;;;2.53;;
14770;SDS011;7477;45.222;5.688;2022-07-29T16:50:52;2.55;;;2.40;;
14770;SDS011;7477;45.222;5.688;2022-07-29T16:54:11;3.10;;;2.30;;
14770;SDS011;7477;45.222;5.688;2022-07-29T16:57:31;2.80;;;2.47;;
14770;SDS011;7477;45.222;5.688;2022-07-29T17:00:51;2.83;;;2.53;;
14770;SDS011;7477;45.222;5.688;2022-07-29T17:04:10;2.08;;;1.98;;
14770;SDS011;7477;45.222;5.688;2022-07-29T17:07:29;3.20;;;2.50;;
14770;SDS011;7477;45.222;5.688;2022-07-29T17:10:48;2.88;;;2.30;;
14770;SDS011;7477;45.222;5.688;2022-07-29T17:14:08;2.92;;;2.45;;
14770;SDS011;7477;45.222;5.688;2022-07-29T17:17:27;3.15;;;2.45;;
14770;SDS011;7477;45.222;5.688;2022-07-29T17:20:47;2.47;;;2.28;;
14770;SDS011;7477;45.222;5.688;2022-07-29T17:24:06;2.25;;;2.05;;
14770;SDS011;7477;45.222;5.688;2022-07-29T17:27:25;4.32;;;2.63;;
14770;SDS011;7477;45.222;5.688;2022-07-29T17:30:44;4.25;;;2.60;;
14770;SDS011;7477;45.222;5.688;2022-07-29T17:34:03;2.60;;;2.40;;
14770;SDS011;7477;45.222;5.688;2022-07-29T17:37:24;3.63;;;2.25;;
14770;SDS011;7477;45.222;5.688;2022-07-29T17:40:43;2.60;;;2.40;;
14770;SDS011;7477;45.222;5.688;2022-07-29T17:44:02;3.25;;;2.60;;
14770;SDS011;7477;45.222;5.688;2022-07-29T17:47:22;5.22;;;2.38;;
14770;SDS011;7477;45.222;5.688;2022-07-29T17:50:41;2.55;;;2.20;;
14770;SDS011;7477;45.222;5.688;2022-07-29T17:54:00;2.78;;;2.17;;
14770;SDS011;7477;45.222;5.688;2022-07-29T17:57:19;2.10;;;1.90;;
14770;SDS011;7477;45.222;5.688;2022-07-29T18:00:39;2.38;;;2.20;;
14770;SDS011;7477;45.222;5.688;2022-07-29T18:03:58;2.22;;;2.05;;
14770;SDS011;7477;45.222;5.688;2022-07-29T18:07:18;2.78;;;2.58;;
14770;SDS011;7477;45.222;5.688;2022-07-29T18:10:37;2.72;;;2.15;;
14770;SDS011;7477;45.222;5.688;2022-07-29T18:13:57;2.38;;;2.17;;
14770;SDS011;7477;45.222;5.688;2022-07-29T18:17:16;2.58;;;2.38;;
14770;SDS011;7477;45.222;5.688;2022-07-29T18:20:35;2.33;;;2.13;;
14770;SDS011;7477;45.222;5.688;2022-07-29T18:23:55;2.42;;;2.22;;
14770;SDS011;7477;45.222;5.688;2022-07-29T18:27:14;2.70;;;2.50;;
14770;SDS011;7477;45.222;5.688;2022-07-29T18:30:34;3.38;;;2.55;;
14770;SDS011;7477;45.222;5.688;2022-07-29T18:33:55;3.17;;;2.88;;
14770;SDS011;7477;45.222;5.688;2022-07-29T18:37:14;3.40;;;2.70;;
14770;SDS011;7477;45.222;5.688;2022-07-29T18:40:33;3.22;;;2.80;;
14770;SDS011;7477;45.222;5.688;2022-07-29T18:43:53;3.63;;;2.80;;
14770;SDS011;7477;45.222;5.688;2022-07-29T18:47:12;2.95;;;2.75;;
14770;SDS011;7477;45.222;5.688;2022-07-29T18:50:31;2.60;;;2.40;;
14770;SDS011;7477;45.222;5.688;2022-07-29T18:53:50;3.50;;;2.75;;
14770;SDS011;7477;45.222;5.688;2022-07-29T18:57:10;5.10;;;2.50;;
14770;SDS011;7477;45.222;5.688;2022-07-29T19:00:29;3.10;;;2.72;;
14770;SDS011;7477;45.222;5.688;2022-07-29T19:03:48;4.43;;;2.50;;
14770;SDS011;7477;45.222;5.688;2022-07-29T19:07:07;2.60;;;2.35;;
14770;SDS011;7477;45.222;5.688;2022-07-29T19:10:27;3.38;;;2.70;;
14770;SDS011;7477;45.222;5.688;2022-07-29T19:13:47;2.60;;;2.40;;
14770;SDS011;7477;45.222;5.688;2022-07-29T19:17:07;3.95;;;2.65;;
14770;SDS011;7477;45.222;5.688;2022-07-29T19:20:26;3.13;;;2.80;;
14770;SDS011;7477;45.222;5.688;2022-07-29T19:23:46;3.08;;;2.33;;
14770;SDS011;7477;45.222;5.688;2022-07-29T19:27:06;3.13;;;2.83;;
14770;SDS011;7477;45.222;5.688;2022-07-29T19:30:25;3.25;;;2.70;;
14770;SDS011;7477;45.222;5.688;2022-07-29T19:33:45;2.72;;;2.53;;
14770;SDS011;7477;45.222;5.688;2022-07-29T19:37:04;4.07;;;2.60;;
14770;SDS011;7477;45.222;5.688;2022-07-29T19:40:23;3.45;;;2.33;;
14770;SDS011;7477;45.222;5.688;2022-07-29T19:43:43;3.15;;;2.83;;
14770;SDS011;7477;45.222;5.688;2022-07-29T19:47:02;2.90;;;2.65;;
14770;SDS011;7477;45.222;5.688;2022-07-29T19:50:22;6.22;;;2.80;;
14770;SDS011;7477;45.222;5.688;2022-07-29T19:53:42;3.55;;;3.08;;
14770;SDS011;7477;45.222;5.688;2022-07-29T19:57:01;3.83;;;2.58;;
14770;SDS011;7477;45.222;5.688;2022-07-29T20:00:21;4.05;;;2.92;;
14770;SDS011;7477;45.222;5.688;2022-07-29T20:03:42;2.97;;;2.53;;
14770;SDS011;7477;45.222;5.688;2022-07-29T20:07:02;2.88;;;2.60;;
14770;SDS011;7477;45.222;5.688;2022-07-29T20:10:21;3.83;;;2.50;;
14770;SDS011;7477;45.222;5.688;2022-07-29T20:13:41;3.30;;;3.00;;
14770;SDS011;7477;45.222;5.688;2022-07-29T20:17:00;4.20;;;2.90;;
14770;SDS011;7477;45.222;5.688;2022-07-29T20:20:20;2.60;;;2.40;;
14770;SDS011;7477;45.222;5.688;2022-07-29T20:23:40;6.32;;;3.20;;
14770;SDS011;7477;45.222;5.688;2022-07-29T20:26:59;3.83;;;2.65;;
14770;SDS011;7477;45.222;5.688;2022-07-29T20:30:20;3.25;;;2.95;;
14770;SDS011;7477;45.222;5.688;2022-07-29T20:33:40;3.40;;;2.55;;
14770;SDS011;7477;45.222;5.688;2022-07-29T20:36:59;2.88;;;2.67;;
14770;SDS011;7477;45.222;5.688;2022-07-29T20:40:18;3.00;;;2.63;;
14770;SDS011;7477;45.222;5.688;2022-07-29T20:43:38;2.78;;;2.50;;
14770;SDS011;7477;45.222;5.688;2022-07-29T20:46:58;4.85;;;2.78;;
14770;SDS011;7477;45.222;5.688;2022-07-29T20:50:18;3.10;;;2.78;;
14770;SDS011;7477;45.222;5.688;2022-07-29T20:53:38;3.13;;;2.83;;
14770;SDS011;7477;45.222;5.688;2022-07-29T20:56:58;4.05;;;2.80;;
14770;SDS011;7477;45.222;5.688;2022-07-29T21:00:18;4.55;;;2.60;;